KCRX/CRX METAR and TAF weather

Enter ICAO airport designator
Station Type Date Time Source
KCRX METAR 2019/10/16 19:35 UTC NOAA

KCRX 161935Z AUTO 34006G16KT 10SM CLR 18/04 A3003 RMK AO2


Station Type Date Time Source
KCRX Decoded METAR 2019/10/16 19:35 UTC NOAA

Station name not available
Oct 16, 2019 - 03:35 PM EDT / 2019.10.16 1935 UTC
Wind: from the NNW (340 degrees) at 7 MPH (6 KT) gusting to 18 MPH (16 KT):0
Visibility: 10 mile(s):0
Sky conditions: clear
Temperature: 64 F (18 C)
Dew Point: 39 F (4 C)
Relative Humidity: 39%
Pressure (altimeter): 30.03 in. Hg (1016 hPa)
ob: KCRX 161935Z AUTO 34006G16KT 10SM CLR 18/04 A3003 RMK AO2
cycle: 19

Station Type Date Time Source
KCRX TAF UTC NOAA

Error!

Example: see airport list